sensor_id;sensor_type;location;lat;lon;timestamp;P1;durP1;ratioP1;P2;durP2;ratioP2
37495;SDS011;23346;52.088;4.746;2022-10-16T00:01:38;2.47;;;1.20;;
37495;SDS011;23346;52.088;4.746;2022-10-16T00:04:04;4.73;;;1.43;;
37495;SDS011;23346;52.088;4.746;2022-10-16T00:06:30;4.40;;;1.70;;
37495;SDS011;23346;52.088;4.746;2022-10-16T00:08:59;16.00;;;9.90;;
37495;SDS011;23346;52.088;4.746;2022-10-16T00:11:27;36.83;;;30.20;;
37495;SDS011;23346;52.088;4.746;2022-10-16T00:13:58;5.50;;;1.40;;
37495;SDS011;23346;52.088;4.746;2022-10-16T00:16:24;2.73;;;1.10;;
37495;SDS011;23346;52.088;4.746;2022-10-16T00:18:50;7.20;;;4.83;;
37495;SDS011;23346;52.088;4.746;2022-10-16T00:21:17;6.27;;;3.87;;
37495;SDS011;23346;52.088;4.746;2022-10-16T00:23:43;3.87;;;1.50;;
37495;SDS011;23346;52.088;4.746;2022-10-16T00:26:13;8.00;;;2.23;;
37495;SDS011;23346;52.088;4.746;2022-10-16T00:28:40;4.37;;;1.43;;
37495;SDS011;23346;52.088;4.746;2022-10-16T00:31:07;2.33;;;1.30;;
37495;SDS011;23346;52.088;4.746;2022-10-16T00:33:34;4.50;;;1.20;;
37495;SDS011;23346;52.088;4.746;2022-10-16T00:36:01;2.90;;;1.23;;
37495;SDS011;23346;52.088;4.746;2022-10-16T00:38:27;2.60;;;1.30;;
37495;SDS011;23346;52.088;4.746;2022-10-16T00:40:54;2.40;;;1.00;;
37495;SDS011;23346;52.088;4.746;2022-10-16T00:46:01;6.23;;;1.20;;
37495;SDS011;23346;52.088;4.746;2022-10-16T00:48:28;2.33;;;1.00;;
37495;SDS011;23346;52.088;4.746;2022-10-16T00:50:54;4.83;;;0.90;;
37495;SDS011;23346;52.088;4.746;2022-10-16T00:53:21;2.10;;;0.70;;
37495;SDS011;23346;52.088;4.746;2022-10-16T00:55:48;2.97;;;0.93;;
37495;SDS011;23346;52.088;4.746;2022-10-16T00:58:14;5.13;;;0.80;;
37495;SDS011;23346;52.088;4.746;2022-10-16T01:00:40;5.37;;;0.70;;
37495;SDS011;23346;52.088;4.746;2022-10-16T01:03:22;3.30;;;0.90;;
37495;SDS011;23346;52.088;4.746;2022-10-16T01:05:49;2.27;;;0.90;;
37495;SDS011;23346;52.088;4.746;2022-10-16T01:08:20;6.83;;;1.10;;
37495;SDS011;23346;52.088;4.746;2022-10-16T01:13:33;4.87;;;1.07;;
37495;SDS011;23346;52.088;4.746;2022-10-16T01:20:54;6.50;;;1.33;;
37495;SDS011;23346;52.088;4.746;2022-10-16T01:28:38;4.43;;;1.40;;
37495;SDS011;23346;52.088;4.746;2022-10-16T01:31:05;4.20;;;1.43;;
37495;SDS011;23346;52.088;4.746;2022-10-16T01:33:42;4.43;;;1.43;;
37495;SDS011;23346;52.088;4.746;2022-10-16T01:36:16;4.60;;;1.13;;
37495;SDS011;23346;52.088;4.746;2022-10-16T01:38:44;2.10;;;1.43;;
37495;SDS011;23346;52.088;4.746;2022-10-16T01:41:22;3.73;;;1.77;;
37495;SDS011;23346;52.088;4.746;2022-10-16T01:43:55;3.80;;;1.47;;
37495;SDS011;23346;52.088;4.746;2022-10-16T01:46:22;5.23;;;1.40;;
37495;SDS011;23346;52.088;4.746;2022-10-16T01:48:49;5.27;;;1.60;;
37495;SDS011;23346;52.088;4.746;2022-10-16T01:51:15;3.23;;;1.17;;
37495;SDS011;23346;52.088;4.746;2022-10-16T01:53:43;4.43;;;2.27;;
37495;SDS011;23346;52.088;4.746;2022-10-16T01:56:11;4.20;;;1.50;;
37495;SDS011;23346;52.088;4.746;2022-10-16T01:58:40;1.80;;;1.40;;
37495;SDS011;23346;52.088;4.746;2022-10-16T02:01:07;5.03;;;1.60;;
37495;SDS011;23346;52.088;4.746;2022-10-16T02:03:34;3.03;;;1.90;;
37495;SDS011;23346;52.088;4.746;2022-10-16T02:06:02;2.53;;;1.40;;
37495;SDS011;23346;52.088;4.746;2022-10-16T02:08:28;4.37;;;1.80;;
37495;SDS011;23346;52.088;4.746;2022-10-16T02:10:56;5.37;;;1.80;;
37495;SDS011;23346;52.088;4.746;2022-10-16T02:13:24;4.13;;;1.87;;
37495;SDS011;23346;52.088;4.746;2022-10-16T02:15:52;3.70;;;2.40;;
37495;SDS011;23346;52.088;4.746;2022-10-16T02:18:17;2.87;;;2.10;;
37495;SDS011;23346;52.088;4.746;2022-10-16T02:20:51;5.40;;;1.93;;
37495;SDS011;23346;52.088;4.746;2022-10-16T02:23:20;5.63;;;2.97;;
37495;SDS011;23346;52.088;4.746;2022-10-16T02:25:49;4.13;;;2.00;;
37495;SDS011;23346;52.088;4.746;2022-10-16T02:28:18;7.40;;;2.53;;
37495;SDS011;23346;52.088;4.746;2022-10-16T02:33:12;3.30;;;2.27;;
37495;SDS011;23346;52.088;4.746;2022-10-16T02:35:40;9.33;;;2.70;;
37495;SDS011;23346;52.088;4.746;2022-10-16T02:38:07;4.23;;;2.50;;
37495;SDS011;23346;52.088;4.746;2022-10-16T02:40:33;5.87;;;2.80;;
37495;SDS011;23346;52.088;4.746;2022-10-16T02:42:59;6.37;;;2.70;;
37495;SDS011;23346;52.088;4.746;2022-10-16T02:45:25;4.70;;;2.50;;
37495;SDS011;23346;52.088;4.746;2022-10-16T02:47:51;3.60;;;2.30;;
37495;SDS011;23346;52.088;4.746;2022-10-16T02:50:18;5.47;;;2.60;;
37495;SDS011;23346;52.088;4.746;2022-10-16T02:52:44;7.07;;;2.87;;
37495;SDS011;23346;52.088;4.746;2022-10-16T02:55:10;6.50;;;2.30;;
37495;SDS011;23346;52.088;4.746;2022-10-16T02:57:36;5.83;;;2.40;;
37495;SDS011;23346;52.088;4.746;2022-10-16T03:00:03;3.90;;;2.10;;
37495;SDS011;23346;52.088;4.746;2022-10-16T03:02:29;4.80;;;2.20;;
37495;SDS011;23346;52.088;4.746;2022-10-16T03:04:55;6.00;;;2.43;;
37495;SDS011;23346;52.088;4.746;2022-10-16T03:07:21;4.20;;;2.50;;
37495;SDS011;23346;52.088;4.746;2022-10-16T03:09:47;6.17;;;2.23;;
37495;SDS011;23346;52.088;4.746;2022-10-16T03:12:13;4.37;;;2.37;;
37495;SDS011;23346;52.088;4.746;2022-10-16T03:14:39;4.30;;;2.17;;
37495;SDS011;23346;52.088;4.746;2022-10-16T03:17:05;7.13;;;2.30;;
37495;SDS011;23346;52.088;4.746;2022-10-16T03:19:31;4.20;;;2.63;;
37495;SDS011;23346;52.088;4.746;2022-10-16T03:21:57;6.50;;;2.10;;
37495;SDS011;23346;52.088;4.746;2022-10-16T03:24:23;5.97;;;2.57;;
37495;SDS011;23346;52.088;4.746;2022-10-16T03:26:49;2.93;;;1.87;;
37495;SDS011;23346;52.088;4.746;2022-10-16T03:29:15;6.50;;;2.33;;
37495;SDS011;23346;52.088;4.746;2022-10-16T03:31:41;5.13;;;2.03;;
37495;SDS011;23346;52.088;4.746;2022-10-16T03:34:07;6.50;;;2.20;;
37495;SDS011;23346;52.088;4.746;2022-10-16T03:36:33;4.80;;;2.60;;
37495;SDS011;23346;52.088;4.746;2022-10-16T03:38:59;4.77;;;2.30;;
37495;SDS011;23346;52.088;4.746;2022-10-16T03:41:25;7.73;;;2.67;;
37495;SDS011;23346;52.088;4.746;2022-10-16T03:43:51;6.73;;;2.60;;
37495;SDS011;23346;52.088;4.746;2022-10-16T03:46:17;3.30;;;2.27;;
37495;SDS011;23346;52.088;4.746;2022-10-16T03:48:43;7.30;;;2.60;;
37495;SDS011;23346;52.088;4.746;2022-10-16T03:51:09;5.13;;;2.20;;
37495;SDS011;23346;52.088;4.746;2022-10-16T03:53:35;3.40;;;2.20;;
37495;SDS011;23346;52.088;4.746;2022-10-16T03:56:01;6.77;;;2.60;;
37495;SDS011;23346;52.088;4.746;2022-10-16T03:58:27;6.67;;;2.30;;
37495;SDS011;23346;52.088;4.746;2022-10-16T04:00:54;5.07;;;2.60;;
37495;SDS011;23346;52.088;4.746;2022-10-16T04:03:20;4.60;;;2.40;;
37495;SDS011;23346;52.088;4.746;2022-10-16T04:05:46;12.17;;;2.67;;
37495;SDS011;23346;52.088;4.746;2022-10-16T04:08:12;4.33;;;2.40;;
37495;SDS011;23346;52.088;4.746;2022-10-16T04:10:38;3.43;;;2.07;;
37495;SDS011;23346;52.088;4.746;2022-10-16T04:13:04;5.53;;;1.90;;
37495;SDS011;23346;52.088;4.746;2022-10-16T04:15:30;5.57;;;2.23;;
37495;SDS011;23346;52.088;4.746;2022-10-16T04:17:56;5.00;;;2.07;;
37495;SDS011;23346;52.088;4.746;2022-10-16T04:20:22;6.30;;;2.07;;
37495;SDS011;23346;52.088;4.746;2022-10-16T04:22:48;8.77;;;1.87;;
37495;SDS011;23346;52.088;4.746;2022-10-16T04:25:14;3.70;;;2.23;;
37495;SDS011;23346;52.088;4.746;2022-10-16T04:27:40;6.97;;;2.13;;
37495;SDS011;23346;52.088;4.746;2022-10-16T04:30:06;6.90;;;1.90;;
37495;SDS011;23346;52.088;4.746;2022-10-16T04:32:32;5.23;;;1.90;;
37495;SDS011;23346;52.088;4.746;2022-10-16T04:34:59;7.23;;;2.20;;
37495;SDS011;23346;52.088;4.746;2022-10-16T04:37:25;4.47;;;2.67;;
37495;SDS011;23346;52.088;4.746;2022-10-16T04:39:51;6.03;;;2.03;;
37495;SDS011;23346;52.088;4.746;2022-10-16T04:42:17;3.63;;;2.10;;
37495;SDS011;23346;52.088;4.746;2022-10-16T04:44:43;5.43;;;2.17;;
37495;SDS011;23346;52.088;4.746;2022-10-16T04:47:09;6.63;;;2.10;;
37495;SDS011;23346;52.088;4.746;2022-10-16T04:49:35;5.40;;;2.33;;
37495;SDS011;23346;52.088;4.746;2022-10-16T04:52:01;5.40;;;2.13;;
37495;SDS011;23346;52.088;4.746;2022-10-16T04:54:27;5.33;;;2.00;;
37495;SDS011;23346;52.088;4.746;2022-10-16T04:56:53;4.97;;;1.80;;
37495;SDS011;23346;52.088;4.746;2022-10-16T04:59:20;9.27;;;2.13;;
37495;SDS011;23346;52.088;4.746;2022-10-16T05:01:47;6.20;;;2.37;;
37495;SDS011;23346;52.088;4.746;2022-10-16T05:04:13;6.10;;;1.80;;
37495;SDS011;23346;52.088;4.746;2022-10-16T05:06:40;5.07;;;2.27;;
37495;SDS011;23346;52.088;4.746;2022-10-16T05:09:06;6.93;;;2.50;;
37495;SDS011;23346;52.088;4.746;2022-10-16T05:11:32;4.77;;;2.20;;
37495;SDS011;23346;52.088;4.746;2022-10-16T05:13:59;2.87;;;1.90;;
37495;SDS011;23346;52.088;4.746;2022-10-16T05:16:25;4.47;;;2.33;;
37495;SDS011;23346;52.088;4.746;2022-10-16T05:18:51;3.87;;;2.20;;
37495;SDS011;23346;52.088;4.746;2022-10-16T05:21:17;4.77;;;2.17;;
37495;SDS011;23346;52.088;4.746;2022-10-16T05:23:43;4.40;;;2.30;;
37495;SDS011;23346;52.088;4.746;2022-10-16T05:26:09;5.13;;;2.30;;
37495;SDS011;23346;52.088;4.746;2022-10-16T05:28:35;10.70;;;2.30;;
37495;SDS011;23346;52.088;4.746;2022-10-16T05:31:07;7.53;;;2.40;;
37495;SDS011;23346;52.088;4.746;2022-10-16T05:33:34;8.40;;;2.37;;
37495;SDS011;23346;52.088;4.746;2022-10-16T05:36:03;6.70;;;2.33;;
37495;SDS011;23346;52.088;4.746;2022-10-16T05:38:30;9.70;;;2.10;;
37495;SDS011;23346;52.088;4.746;2022-10-16T05:40:56;3.53;;;2.17;;
37495;SDS011;23346;52.088;4.746;2022-10-16T05:43:22;8.57;;;2.40;;
37495;SDS011;23346;52.088;4.746;2022-10-16T05:45:58;6.47;;;2.93;;
37495;SDS011;23346;52.088;4.746;2022-10-16T05:48:25;7.90;;;2.57;;
37495;SDS011;23346;52.088;4.746;2022-10-16T05:50:58;5.33;;;3.03;;
37495;SDS011;23346;52.088;4.746;2022-10-16T05:53:24;4.70;;;2.50;;
37495;SDS011;23346;52.088;4.746;2022-10-16T05:55:53;5.63;;;2.50;;
37495;SDS011;23346;52.088;4.746;2022-10-16T05:58:19;7.77;;;3.10;;
37495;SDS011;23346;52.088;4.746;2022-10-16T06:00:52;4.60;;;2.90;;
37495;SDS011;23346;52.088;4.746;2022-10-16T06:03:18;9.20;;;2.90;;
37495;SDS011;23346;52.088;4.746;2022-10-16T06:05:44;4.60;;;2.40;;
37495;SDS011;23346;52.088;4.746;2022-10-16T06:08:10;8.60;;;2.97;;
37495;SDS011;23346;52.088;4.746;2022-10-16T06:10:36;4.27;;;2.33;;
37495;SDS011;23346;52.088;4.746;2022-10-16T06:13:02;7.13;;;2.83;;
37495;SDS011;23346;52.088;4.746;2022-10-16T06:15:28;7.77;;;2.67;;
37495;SDS011;23346;52.088;4.746;2022-10-16T06:17:54;10.57;;;2.97;;
37495;SDS011;23346;52.088;4.746;2022-10-16T06:20:19;7.47;;;2.87;;
37495;SDS011;23346;52.088;4.746;2022-10-16T06:22:45;7.77;;;2.70;;
37495;SDS011;23346;52.088;4.746;2022-10-16T06:25:11;5.90;;;3.10;;
37495;SDS011;23346;52.088;4.746;2022-10-16T06:27:40;6.37;;;2.47;;
37495;SDS011;23346;52.088;4.746;2022-10-16T06:30:07;7.37;;;3.20;;
37495;SDS011;23346;52.088;4.746;2022-10-16T06:32:33;8.20;;;2.80;;
37495;SDS011;23346;52.088;4.746;2022-10-16T06:34:59;10.93;;;2.73;;
37495;SDS011;23346;52.088;4.746;2022-10-16T06:37:25;4.67;;;2.03;;
37495;SDS011;23346;52.088;4.746;2022-10-16T06:39:52;4.10;;;2.40;;
37495;SDS011;23346;52.088;4.746;2022-10-16T06:42:18;7.23;;;3.07;;
37495;SDS011;23346;52.088;4.746;2022-10-16T06:44:44;8.87;;;2.57;;
37495;SDS011;23346;52.088;4.746;2022-10-16T06:47:10;12.20;;;2.83;;
37495;SDS011;23346;52.088;4.746;2022-10-16T06:49:37;6.73;;;2.47;;
37495;SDS011;23346;52.088;4.746;2022-10-16T06:52:03;9.63;;;2.17;;
37495;SDS011;23346;52.088;4.746;2022-10-16T06:54:29;11.37;;;2.37;;
37495;SDS011;23346;52.088;4.746;2022-10-16T06:56:56;8.97;;;2.57;;
37495;SDS011;23346;52.088;4.746;2022-10-16T06:59:22;10.10;;;1.50;;
37495;SDS011;23346;52.088;4.746;2022-10-16T07:01:48;11.97;;;1.90;;
37495;SDS011;23346;52.088;4.746;2022-10-16T07:04:14;9.57;;;1.87;;
37495;SDS011;23346;52.088;4.746;2022-10-16T07:06:40;8.00;;;1.70;;
37495;SDS011;23346;52.088;4.746;2022-10-16T07:09:07;7.87;;;1.90;;
37495;SDS011;23346;52.088;4.746;2022-10-16T07:11:34;4.80;;;1.67;;
37495;SDS011;23346;52.088;4.746;2022-10-16T07:14:02;6.63;;;1.87;;
37495;SDS011;23346;52.088;4.746;2022-10-16T07:16:29;13.37;;;2.10;;
37495;SDS011;23346;52.088;4.746;2022-10-16T07:18:56;8.97;;;1.80;;
37495;SDS011;23346;52.088;4.746;2022-10-16T07:21:23;11.33;;;2.57;;
37495;SDS011;23346;52.088;4.746;2022-10-16T07:23:54;8.37;;;1.73;;
37495;SDS011;23346;52.088;4.746;2022-10-16T07:26:20;5.50;;;1.83;;
37495;SDS011;23346;52.088;4.746;2022-10-16T07:28:46;5.40;;;1.73;;
37495;SDS011;23346;52.088;4.746;2022-10-16T07:31:13;13.40;;;2.20;;
37495;SDS011;23346;52.088;4.746;2022-10-16T07:33:40;8.63;;;2.10;;
37495;SDS011;23346;52.088;4.746;2022-10-16T07:36:07;13.70;;;2.70;;
37495;SDS011;23346;52.088;4.746;2022-10-16T07:38:33;5.17;;;1.83;;
37495;SDS011;23346;52.088;4.746;2022-10-16T07:41:03;7.13;;;2.20;;
37495;SDS011;23346;52.088;4.746;2022-10-16T07:43:29;11.13;;;2.87;;
37495;SDS011;23346;52.088;4.746;2022-10-16T07:45:56;9.43;;;2.50;;
37495;SDS011;23346;52.088;4.746;2022-10-16T07:48:22;12.17;;;2.47;;
37495;SDS011;23346;52.088;4.746;2022-10-16T07:50:48;9.17;;;2.87;;
37495;SDS011;23346;52.088;4.746;2022-10-16T07:53:14;9.70;;;2.40;;
37495;SDS011;23346;52.088;4.746;2022-10-16T07:55:41;6.50;;;1.77;;
37495;SDS011;23346;52.088;4.746;2022-10-16T07:58:07;6.80;;;2.40;;
37495;SDS011;23346;52.088;4.746;2022-10-16T08:00:33;7.40;;;2.20;;
37495;SDS011;23346;52.088;4.746;2022-10-16T08:02:59;6.67;;;2.10;;
37495;SDS011;23346;52.088;4.746;2022-10-16T08:05:28;8.83;;;1.80;;
37495;SDS011;23346;52.088;4.746;2022-10-16T08:07:55;4.97;;;1.67;;
37495;SDS011;23346;52.088;4.746;2022-10-16T08:10:21;11.03;;;1.87;;
37495;SDS011;23346;52.088;4.746;2022-10-16T08:12:48;7.73;;;1.73;;
37495;SDS011;23346;52.088;4.746;2022-10-16T08:15:14;4.25;;;1.00;;
37495;SDS011;23346;52.088;4.746;2022-10-16T08:17:40;9.23;;;1.50;;
37495;SDS011;23346;52.088;4.746;2022-10-16T08:20:06;5.47;;;1.30;;
37495;SDS011;23346;52.088;4.746;2022-10-16T08:22:32;10.07;;;1.70;;
37495;SDS011;23346;52.088;4.746;2022-10-16T08:24:58;4.35;;;1.20;;
37495;SDS011;23346;52.088;4.746;2022-10-16T08:27:24;8.25;;;1.58;;
37495;SDS011;23346;52.088;4.746;2022-10-16T08:29:50;8.82;;;1.42;;
37495;SDS011;23346;52.088;4.746;2022-10-16T08:32:16;6.65;;;1.30;;
37495;SDS011;23346;52.088;4.746;2022-10-16T08:34:42;6.25;;;1.02;;
37495;SDS011;23346;52.088;4.746;2022-10-16T08:37:08;7.68;;;0.90;;
37495;SDS011;23346;52.088;4.746;2022-10-16T08:39:36;6.40;;;1.33;;
37495;SDS011;23346;52.088;4.746;2022-10-16T08:47:17;6.40;;;1.08;;
37495;SDS011;23346;52.088;4.746;2022-10-16T08:49:52;4.70;;;0.95;;
37495;SDS011;23346;52.088;4.746;2022-10-16T08:52:21;6.32;;;1.27;;
37495;SDS011;23346;52.088;4.746;2022-10-16T08:54:47;9.70;;;2.13;;
37495;SDS011;23346;52.088;4.746;2022-10-16T08:57:25;7.60;;;1.10;;
37495;SDS011;23346;52.088;4.746;2022-10-16T08:59:57;4.53;;;1.05;;
37495;SDS011;23346;52.088;4.746;2022-10-16T09:02:32;7.10;;;1.27;;
37495;SDS011;23346;52.088;4.746;2022-10-16T09:12:28;4.47;;;0.93;;
37495;SDS011;23346;52.088;4.746;2022-10-16T09:20:42;8.50;;;1.27;;
37495;SDS011;23346;52.088;4.746;2022-10-16T09:23:13;5.13;;;1.40;;
37495;SDS011;23346;52.088;4.746;2022-10-16T09:25:41;10.05;;;1.55;;
37495;SDS011;23346;52.088;4.746;2022-10-16T09:28:08;6.53;;;1.38;;
37495;SDS011;23346;52.088;4.746;2022-10-16T09:30:35;14.32;;;1.35;;
37495;SDS011;23346;52.088;4.746;2022-10-16T09:33:01;10.05;;;1.48;;
37495;SDS011;23346;52.088;4.746;2022-10-16T09:35:40;11.60;;;1.35;;
37495;SDS011;23346;52.088;4.746;2022-10-16T09:38:07;11.10;;;1.40;;
37495;SDS011;23346;52.088;4.746;2022-10-16T09:40:37;7.53;;;1.38;;
37495;SDS011;23346;52.088;4.746;2022-10-16T09:45:32;6.85;;;1.20;;
37495;SDS011;23346;52.088;4.746;2022-10-16T09:48:00;9.68;;;1.50;;
37495;SDS011;23346;52.088;4.746;2022-10-16T09:50:27;11.48;;;2.13;;
37495;SDS011;23346;52.088;4.746;2022-10-16T09:53:03;8.85;;;1.42;;
37495;SDS011;23346;52.088;4.746;2022-10-16T09:55:30;6.85;;;1.63;;
37495;SDS011;23346;52.088;4.746;2022-10-16T09:57:56;11.07;;;1.35;;
37495;SDS011;23346;52.088;4.746;2022-10-16T10:00:22;12.48;;;1.50;;
37495;SDS011;23346;52.088;4.746;2022-10-16T10:02:48;15.50;;;1.70;;
37495;SDS011;23346;52.088;4.746;2022-10-16T10:05:18;10.40;;;1.45;;
37495;SDS011;23346;52.088;4.746;2022-10-16T10:07:52;9.23;;;1.67;;
37495;SDS011;23346;52.088;4.746;2022-10-16T10:10:24;9.25;;;1.85;;
37495;SDS011;23346;52.088;4.746;2022-10-16T10:12:50;12.35;;;1.70;;
37495;SDS011;23346;52.088;4.746;2022-10-16T10:15:16;11.68;;;1.75;;
37495;SDS011;23346;52.088;4.746;2022-10-16T10:18:15;15.65;;;1.42;;
37495;SDS011;23346;52.088;4.746;2022-10-16T10:20:35;17.02;;;1.85;;
37495;SDS011;23346;52.088;4.746;2022-10-16T10:23:20;13.02;;;2.58;;
37495;SDS011;23346;52.088;4.746;2022-10-16T10:36:05;10.20;;;1.27;;
37495;SDS011;23346;52.088;4.746;2022-10-16T10:46:05;10.40;;;2.10;;
37495;SDS011;23346;52.088;4.746;2022-10-16T10:51:25;12.75;;;1.90;;
37495;SDS011;23346;52.088;4.746;2022-10-16T11:01:45;12.95;;;1.90;;
37495;SDS011;23346;52.088;4.746;2022-10-16T11:06:54;11.02;;;1.40;;
37495;SDS011;23346;52.088;4.746;2022-10-16T11:11:52;7.47;;;1.40;;
37495;SDS011;23346;52.088;4.746;2022-10-16T11:14:26;8.13;;;1.05;;
37495;SDS011;23346;52.088;4.746;2022-10-16T11:16:57;8.73;;;1.77;;
37495;SDS011;23346;52.088;4.746;2022-10-16T11:24:52;6.88;;;1.05;;
37495;SDS011;23346;52.088;4.746;2022-10-16T11:27:33;12.18;;;1.45;;
37495;SDS011;23346;52.088;4.746;2022-10-16T11:30:02;13.30;;;1.33;;
37495;SDS011;23346;52.088;4.746;2022-10-16T11:32:42;5.50;;;1.30;;
37495;SDS011;23346;52.088;4.746;2022-10-16T11:35:20;20.00;;;1.88;;
37495;SDS011;23346;52.088;4.746;2022-10-16T11:37:48;7.47;;;1.00;;
37495;SDS011;23346;52.088;4.746;2022-10-16T11:40:48;8.40;;;1.42;;
37495;SDS011;23346;52.088;4.746;2022-10-16T11:43:13;12.10;;;1.42;;
37495;SDS011;23346;52.088;4.746;2022-10-16T11:45:44;9.05;;;1.15;;
37495;SDS011;23346;52.088;4.746;2022-10-16T11:50:57;11.07;;;1.70;;
37495;SDS011;23346;52.088;4.746;2022-10-16T11:55:53;11.18;;;1.42;;
37495;SDS011;23346;52.088;4.746;2022-10-16T12:08:21;4.38;;;0.88;;
37495;SDS011;23346;52.088;4.746;2022-10-16T12:10:48;10.48;;;1.23;;
37495;SDS011;23346;52.088;4.746;2022-10-16T12:18:34;9.25;;;1.30;;
37495;SDS011;23346;52.088;4.746;2022-10-16T12:21:00;12.43;;;1.83;;
37495;SDS011;23346;52.088;4.746;2022-10-16T12:23:31;9.73;;;1.88;;
37495;SDS011;23346;52.088;4.746;2022-10-16T12:25:58;6.45;;;1.10;;
37495;SDS011;23346;52.088;4.746;2022-10-16T12:28:29;9.75;;;1.20;;
37495;SDS011;23346;52.088;4.746;2022-10-16T12:30:57;8.63;;;1.40;;
37495;SDS011;23346;52.088;4.746;2022-10-16T12:33:25;12.48;;;1.50;;
37495;SDS011;23346;52.088;4.746;2022-10-16T12:35:52;13.90;;;1.30;;
37495;SDS011;23346;52.088;4.746;2022-10-16T12:38:28;13.27;;;1.48;;
37495;SDS011;23346;52.088;4.746;2022-10-16T12:41:03;14.45;;;1.80;;
37495;SDS011;23346;52.088;4.746;2022-10-16T12:43:37;6.35;;;1.13;;
37495;SDS011;23346;52.088;4.746;2022-10-16T12:48:39;13.32;;;1.40;;
37495;SDS011;23346;52.088;4.746;2022-10-16T12:51:32;13.25;;;1.73;;
37495;SDS011;23346;52.088;4.746;2022-10-16T12:54:12;9.40;;;1.30;;
37495;SDS011;23346;52.088;4.746;2022-10-16T12:59:23;11.50;;;2.00;;
37495;SDS011;23346;52.088;4.746;2022-10-16T13:01:59;11.48;;;1.40;;
37495;SDS011;23346;52.088;4.746;2022-10-16T13:07:02;8.65;;;1.30;;
37495;SDS011;23346;52.088;4.746;2022-10-16T13:19:43;8.00;;;1.20;;
37495;SDS011;23346;52.088;4.746;2022-10-16T13:27:29;10.18;;;1.23;;
37495;SDS011;23346;52.088;4.746;2022-10-16T13:30:16;10.93;;;1.40;;
37495;SDS011;23346;52.088;4.746;2022-10-16T13:32:46;11.02;;;1.30;;
37495;SDS011;23346;52.088;4.746;2022-10-16T13:35:26;10.90;;;2.85;;
37495;SDS011;23346;52.088;4.746;2022-10-16T13:40:59;13.48;;;2.90;;
37495;SDS011;23346;52.088;4.746;2022-10-16T13:45:52;15.10;;;2.10;;
37495;SDS011;23346;52.088;4.746;2022-10-16T13:48:18;9.50;;;2.00;;
37495;SDS011;23346;52.088;4.746;2022-10-16T13:50:44;13.50;;;1.55;;
37495;SDS011;23346;52.088;4.746;2022-10-16T13:53:13;9.10;;;1.58;;
37495;SDS011;23346;52.088;4.746;2022-10-16T13:55:39;11.48;;;1.60;;
37495;SDS011;23346;52.088;4.746;2022-10-16T13:58:12;15.52;;;2.00;;
37495;SDS011;23346;52.088;4.746;2022-10-16T14:00:38;8.60;;;1.35;;
37495;SDS011;23346;52.088;4.746;2022-10-16T14:03:05;7.05;;;1.58;;
37495;SDS011;23346;52.088;4.746;2022-10-16T14:05:32;14.55;;;1.38;;
37495;SDS011;23346;52.088;4.746;2022-10-16T14:07:59;7.93;;;1.45;;
37495;SDS011;23346;52.088;4.746;2022-10-16T14:10:27;10.13;;;1.30;;
37495;SDS011;23346;52.088;4.746;2022-10-16T14:12:54;18.30;;;1.52;;
37495;SDS011;23346;52.088;4.746;2022-10-16T14:15:20;10.27;;;1.48;;
37495;SDS011;23346;52.088;4.746;2022-10-16T14:17:48;8.93;;;1.10;;
37495;SDS011;23346;52.088;4.746;2022-10-16T14:20:15;9.88;;;1.40;;
37495;SDS011;23346;52.088;4.746;2022-10-16T14:22:41;7.00;;;1.80;;
37495;SDS011;23346;52.088;4.746;2022-10-16T14:25:21;14.43;;;1.70;;
37495;SDS011;23346;52.088;4.746;2022-10-16T14:30:24;18.92;;;2.08;;
37495;SDS011;23346;52.088;4.746;2022-10-16T14:32:59;12.80;;;1.42;;
37495;SDS011;23346;52.088;4.746;2022-10-16T14:37:55;9.15;;;1.48;;
37495;SDS011;23346;52.088;4.746;2022-10-16T14:40:31;13.40;;;1.90;;
37495;SDS011;23346;52.088;4.746;2022-10-16T14:42:58;11.38;;;1.83;;
37495;SDS011;23346;52.088;4.746;2022-10-16T14:45:26;10.55;;;1.25;;
37495;SDS011;23346;52.088;4.746;2022-10-16T14:47:53;14.68;;;2.15;;
37495;SDS011;23346;52.088;4.746;2022-10-16T14:50:20;13.25;;;2.15;;
37495;SDS011;23346;52.088;4.746;2022-10-16T14:52:46;12.52;;;2.00;;
37495;SDS011;23346;52.088;4.746;2022-10-16T14:55:13;16.98;;;1.90;;
37495;SDS011;23346;52.088;4.746;2022-10-16T14:57:39;8.18;;;1.60;;
37495;SDS011;23346;52.088;4.746;2022-10-16T15:00:09;13.60;;;2.05;;
37495;SDS011;23346;52.088;4.746;2022-10-16T15:02:39;15.05;;;1.35;;
37495;SDS011;23346;52.088;4.746;2022-10-16T15:05:13;11.35;;;1.50;;
37495;SDS011;23346;52.088;4.746;2022-10-16T15:07:39;7.22;;;2.00;;
37495;SDS011;23346;52.088;4.746;2022-10-16T15:10:06;10.50;;;1.70;;
37495;SDS011;23346;52.088;4.746;2022-10-16T15:12:32;16.58;;;2.20;;
37495;SDS011;23346;52.088;4.746;2022-10-16T15:14:58;10.70;;;1.58;;
37495;SDS011;23346;52.088;4.746;2022-10-16T15:17:24;12.38;;;1.73;;
37495;SDS011;23346;52.088;4.746;2022-10-16T15:19:50;10.43;;;1.70;;
37495;SDS011;23346;52.088;4.746;2022-10-16T15:22:16;13.63;;;1.83;;
37495;SDS011;23346;52.088;4.746;2022-10-16T15:24:43;11.68;;;1.65;;
37495;SDS011;23346;52.088;4.746;2022-10-16T15:27:09;10.15;;;1.50;;
37495;SDS011;23346;52.088;4.746;2022-10-16T15:29:35;9.23;;;1.42;;
37495;SDS011;23346;52.088;4.746;2022-10-16T15:32:01;11.82;;;1.80;;
37495;SDS011;23346;52.088;4.746;2022-10-16T15:34:27;12.52;;;1.58;;
37495;SDS011;23346;52.088;4.746;2022-10-16T15:36:53;16.58;;;1.90;;
37495;SDS011;23346;52.088;4.746;2022-10-16T15:39:20;10.90;;;1.98;;
37495;SDS011;23346;52.088;4.746;2022-10-16T15:41:46;14.75;;;2.75;;
37495;SDS011;23346;52.088;4.746;2022-10-16T15:44:15;13.15;;;3.28;;
37495;SDS011;23346;52.088;4.746;2022-10-16T15:46:42;17.98;;;3.22;;
37495;SDS011;23346;52.088;4.746;2022-10-16T15:49:08;16.42;;;2.70;;
37495;SDS011;23346;52.088;4.746;2022-10-16T15:51:37;10.48;;;2.88;;
37495;SDS011;23346;52.088;4.746;2022-10-16T15:54:04;11.82;;;2.78;;
37495;SDS011;23346;52.088;4.746;2022-10-16T15:56:30;12.07;;;2.58;;
37495;SDS011;23346;52.088;4.746;2022-10-16T15:58:58;11.88;;;4.03;;
37495;SDS011;23346;52.088;4.746;2022-10-16T16:01:24;16.67;;;3.78;;
37495;SDS011;23346;52.088;4.746;2022-10-16T16:03:53;17.80;;;3.28;;
37495;SDS011;23346;52.088;4.746;2022-10-16T16:06:19;19.07;;;4.30;;
37495;SDS011;23346;52.088;4.746;2022-10-16T16:08:45;18.55;;;5.07;;
37495;SDS011;23346;52.088;4.746;2022-10-16T16:11:12;14.37;;;4.83;;
37495;SDS011;23346;52.088;4.746;2022-10-16T16:13:39;21.57;;;6.07;;
37495;SDS011;23346;52.088;4.746;2022-10-16T16:16:15;22.20;;;5.17;;
37495;SDS011;23346;52.088;4.746;2022-10-16T16:18:41;19.37;;;4.97;;
37495;SDS011;23346;52.088;4.746;2022-10-16T16:21:07;14.80;;;3.13;;
37495;SDS011;23346;52.088;4.746;2022-10-16T16:23:34;11.33;;;3.63;;
37495;SDS011;23346;52.088;4.746;2022-10-16T16:26:04;11.77;;;3.73;;
37495;SDS011;23346;52.088;4.746;2022-10-16T16:28:30;16.43;;;4.30;;
37495;SDS011;23346;52.088;4.746;2022-10-16T16:30:56;18.90;;;3.03;;
37495;SDS011;23346;52.088;4.746;2022-10-16T16:33:22;15.67;;;5.20;;
37495;SDS011;23346;52.088;4.746;2022-10-16T16:35:49;17.03;;;4.60;;
37495;SDS011;23346;52.088;4.746;2022-10-16T16:38:15;18.00;;;4.17;;
37495;SDS011;23346;52.088;4.746;2022-10-16T16:40:41;25.30;;;5.93;;
37495;SDS011;23346;52.088;4.746;2022-10-16T16:43:07;18.53;;;4.27;;
37495;SDS011;23346;52.088;4.746;2022-10-16T16:45:36;18.63;;;5.97;;
37495;SDS011;23346;52.088;4.746;2022-10-16T16:48:02;22.97;;;6.53;;
37495;SDS011;23346;52.088;4.746;2022-10-16T16:50:28;16.60;;;5.33;;
37495;SDS011;23346;52.088;4.746;2022-10-16T16:52:54;16.40;;;4.83;;
37495;SDS011;23346;52.088;4.746;2022-10-16T16:55:20;14.20;;;4.50;;
37495;SDS011;23346;52.088;4.746;2022-10-16T16:57:47;12.67;;;5.03;;
37495;SDS011;23346;52.088;4.746;2022-10-16T17:00:13;13.90;;;4.87;;